Idaho Springs, Colorado
Current Conditions -  °F | °C
As of 3:49 PM on Thursday 23 Oct 2014 (Local Time) from K0CO Reporting Station
Clear Clear  
Wind Chill: 25°   Ceiling: Unl
Heat Index: 36°   Visibility: 10mi
Dew Point: 32°   Wind: 21mph
Humidity: 87%   Direction: 290°WNW
Pressure: 30.52"   Gusts: 29mph
Location:  39.74°N, 105.51°W
Report Text: K0CO 232149Z AUTO 29018G25KT 10SM CLR 02/00 A3052 RMK AO2
Loading
Personal Weather Stations






























Interactive Weather Map
Tropical Storm Tracking
New forecast layout! Learn more

10-Day Weather Forecast

Advertisements
Track Severe Weather on mobile